createdAt,value
2022-11-06T00:00:42.414Z,6.40
2022-11-06T00:03:11.334Z,6.50
2022-11-06T00:06:00.133Z,6.50
2022-11-06T00:08:30.674Z,6.50
2022-11-06T00:10:58.830Z,6.50
2022-11-06T00:13:28.418Z,6.70
2022-11-06T00:15:56.638Z,6.70
2022-11-06T00:18:28.328Z,6.60
2022-11-06T00:20:56.438Z,6.60
2022-11-06T00:23:24.493Z,6.60
2022-11-06T00:25:56.473Z,6.60
2022-11-06T00:28:24.615Z,6.70
2022-11-06T00:31:02.383Z,7.10
2022-11-06T00:33:30.490Z,7.00
2022-11-06T00:35:58.719Z,6.80
2022-11-06T00:38:27.067Z,6.60
2022-11-06T00:40:55.101Z,6.70
2022-11-06T00:43:23.163Z,6.70
2022-11-06T00:45:51.369Z,6.90
2022-11-06T00:48:20.939Z,6.80
2022-11-06T00:50:49.109Z,6.70
2022-11-06T00:53:17.203Z,6.50
2022-11-06T00:55:45.370Z,6.40
2022-11-06T00:58:13.695Z,6.40
2022-11-06T01:00:42.192Z,6.40
2022-11-06T01:03:10.388Z,6.30
2022-11-06T01:05:40.018Z,6.40
2022-11-06T01:08:08.210Z,6.40
2022-11-06T01:10:38.621Z,6.50
2022-11-06T01:13:06.709Z,6.50
2022-11-06T01:15:37.751Z,6.40
2022-11-06T01:18:06.175Z,6.40
2022-11-06T01:20:34.228Z,6.40
2022-11-06T01:23:03.757Z,6.30
2022-11-06T01:25:32.068Z,6.30
2022-11-06T01:28:00.257Z,6.20
2022-11-06T01:30:28.445Z,6.10
2022-11-06T01:32:56.532Z,6.10
2022-11-06T01:35:24.617Z,6.20
2022-11-06T01:37:52.751Z,6.00
2022-11-06T01:40:22.208Z,6.00
2022-11-06T01:42:51.922Z,5.90
2022-11-06T01:45:32.771Z,5.80
2022-11-06T01:48:01.569Z,5.80
2022-11-06T01:50:29.867Z,6.00
2022-11-06T01:53:00.808Z,6.00
2022-11-06T01:55:34.560Z,5.80
2022-11-06T01:58:04.433Z,5.90
2022-11-06T02:00:32.819Z,5.80
2022-11-06T02:03:01.917Z,5.80
2022-11-06T02:05:30.320Z,5.70
2022-11-06T02:08:00.368Z,5.60
2022-11-06T02:10:30.542Z,5.60
2022-11-06T02:13:15.784Z,5.80
2022-11-06T02:15:50.372Z,5.90
2022-11-06T02:18:50.522Z,6.00
2022-11-06T02:22:00.005Z,6.10
2022-11-06T02:24:52.306Z,6.00
2022-11-06T02:27:25.507Z,6.00
2022-11-06T02:30:01.269Z,5.90
2022-11-06T02:32:34.177Z,5.90
2022-11-06T02:35:05.935Z,6.00
2022-11-06T02:37:38.092Z,6.20
2022-11-06T02:40:09.915Z,6.20
2022-11-06T02:42:44.333Z,6.10
2022-11-06T02:45:15.440Z,6.10
2022-11-06T02:47:45.045Z,6.10
2022-11-06T02:50:15.629Z,6.20
2022-11-06T02:52:49.009Z,6.30
2022-11-06T02:55:20.873Z,6.40
2022-11-06T02:57:55.144Z,6.30
2022-11-06T03:00:25.294Z,6.20
2022-11-06T03:02:57.685Z,6.30
2022-11-06T03:05:32.146Z,6.30
2022-11-06T03:08:04.793Z,6.30
2022-11-06T03:10:40.225Z,6.20
2022-11-06T03:13:18.596Z,6.30
2022-11-06T03:15:58.520Z,6.30
2022-11-06T03:18:31.300Z,6.20
2022-11-06T03:21:05.959Z,6.10
2022-11-06T03:23:39.615Z,6.20
2022-11-06T03:26:14.671Z,6.40
2022-11-06T03:28:52.783Z,6.20
2022-11-06T03:31:27.892Z,6.10
2022-11-06T03:33:59.294Z,6.10
2022-11-06T03:36:32.257Z,6.10
2022-11-06T03:39:04.000Z,6.10
2022-11-06T03:41:38.711Z,6.10
2022-11-06T03:44:14.115Z,6.20
2022-11-06T03:46:47.780Z,6.00
2022-11-06T03:49:23.617Z,6.00
2022-11-06T03:51:55.195Z,6.00
2022-11-06T03:54:27.404Z,6.10
2022-11-06T03:57:00.845Z,6.00
2022-11-06T03:59:35.629Z,6.00
2022-11-06T04:02:04.834Z,5.90
2022-11-06T04:04:39.549Z,5.90
2022-11-06T04:07:11.900Z,5.80
2022-11-06T04:10:00.363Z,5.90
2022-11-06T04:12:48.713Z,5.80
2022-11-06T04:15:20.884Z,5.90
2022-11-06T04:17:49.398Z,5.70
2022-11-06T04:20:35.534Z,5.80
2022-11-06T04:23:11.456Z,5.90
2022-11-06T04:26:09.875Z,5.90
2022-11-06T04:28:49.369Z,5.70
2022-11-06T04:31:29.999Z,5.70
2022-11-06T04:34:02.699Z,5.50
2022-11-06T04:36:39.912Z,5.30
2022-11-06T04:39:18.539Z,5.30
2022-11-06T04:41:53.935Z,5.30
2022-11-06T04:44:27.753Z,5.30
2022-11-06T04:47:01.383Z,5.20
2022-11-06T04:49:32.886Z,5.10
2022-11-06T04:52:03.555Z,5.10
2022-11-06T04:54:32.675Z,4.90
2022-11-06T04:57:01.309Z,5.00
2022-11-06T04:59:31.337Z,5.00
2022-11-06T05:02:00.813Z,5.00
2022-11-06T05:04:28.968Z,4.90
2022-11-06T05:06:57.018Z,4.90
2022-11-06T05:09:25.305Z,4.80
2022-11-06T05:11:53.395Z,4.80
2022-11-06T05:14:21.449Z,4.80
2022-11-06T05:16:49.552Z,4.80
2022-11-06T05:19:18.910Z,4.80
2022-11-06T05:22:04.453Z,4.70
2022-11-06T05:24:32.521Z,4.60
2022-11-06T05:27:00.613Z,4.60
2022-11-06T05:29:28.767Z,4.50
2022-11-06T05:31:56.805Z,4.40
2022-11-06T05:34:26.234Z,4.30
2022-11-06T05:36:54.401Z,4.30
2022-11-06T05:39:22.453Z,4.30
2022-11-06T05:41:50.474Z,4.10
2022-11-06T05:44:18.684Z,3.90
2022-11-06T05:46:49.590Z,4.00
2022-11-06T05:49:19.257Z,4.20
2022-11-06T05:51:49.241Z,4.30
2022-11-06T05:54:17.523Z,4.40
2022-11-06T05:56:45.509Z,4.40
2022-11-06T05:59:13.743Z,4.40
2022-11-06T06:01:41.926Z,4.40
2022-11-06T06:04:10.104Z,4.50
2022-11-06T06:06:39.252Z,4.50
2022-11-06T06:09:08.848Z,4.50
2022-11-06T06:11:36.941Z,4.60
2022-11-06T06:14:04.992Z,4.60
2022-11-06T06:16:33.983Z,4.40
2022-11-06T06:19:02.062Z,4.40
2022-11-06T06:21:30.099Z,4.40
2022-11-06T06:23:58.169Z,4.30
2022-11-06T06:26:27.578Z,4.40
2022-11-06T06:28:55.635Z,4.50
2022-11-06T06:31:24.029Z,4.50
2022-11-06T06:33:52.165Z,4.60
2022-11-06T06:36:20.240Z,4.70
2022-11-06T06:38:48.372Z,4.70
2022-11-06T06:41:16.448Z,4.70
2022-11-06T06:43:49.370Z,4.80
2022-11-06T06:46:17.963Z,4.90
2022-11-06T06:48:46.337Z,4.90
2022-11-06T06:51:16.500Z,4.90
2022-11-06T06:53:48.328Z,5.00
2022-11-06T06:56:16.697Z,5.10
2022-11-06T06:58:46.137Z,5.30
2022-11-06T07:01:14.423Z,5.20
2022-11-06T07:03:42.858Z,5.30
2022-11-06T07:06:11.099Z,5.50
2022-11-06T07:08:39.145Z,5.60
2022-11-06T07:11:09.629Z,5.60
2022-11-06T07:13:37.787Z,5.70
2022-11-06T07:16:09.128Z,5.70
2022-11-06T07:18:38.612Z,6.00
2022-11-06T07:21:07.677Z,6.30
2022-11-06T07:23:36.308Z,6.20
2022-11-06T07:26:05.192Z,6.10
2022-11-06T07:28:34.237Z,6.10
2022-11-06T07:31:03.839Z,6.40
2022-11-06T07:33:33.739Z,6.50
2022-11-06T07:36:05.908Z,6.60
2022-11-06T07:38:35.552Z,6.90
2022-11-06T07:41:04.448Z,7.00
2022-11-06T07:43:32.658Z,7.10
2022-11-06T07:46:02.036Z,7.30
2022-11-06T07:48:30.580Z,7.50
2022-11-06T07:51:02.613Z,7.60
2022-11-06T07:53:30.768Z,7.60
2022-11-06T07:55:58.995Z,7.90
2022-11-06T07:58:27.201Z,7.70
2022-11-06T08:00:57.102Z,7.70
2022-11-06T08:03:26.303Z,7.90
2022-11-06T08:05:54.391Z,8.20
2022-11-06T08:08:23.992Z,8.40
2022-11-06T08:10:53.929Z,8.60
2022-11-06T08:13:22.145Z,8.50
2022-11-06T08:15:50.255Z,8.80
2022-11-06T08:18:18.406Z,8.90
2022-11-06T08:20:46.583Z,8.90
2022-11-06T08:23:14.971Z,9.30
2022-11-06T08:25:44.702Z,9.50
2022-11-06T08:28:13.275Z,9.50
2022-11-06T08:30:41.641Z,9.70
2022-11-06T08:33:12.317Z,9.50
2022-11-06T08:35:40.400Z,9.70
2022-11-06T08:38:08.679Z,9.70
2022-11-06T08:40:38.402Z,9.60
2022-11-06T08:43:11.081Z,9.50
2022-11-06T08:45:39.919Z,9.60
2022-11-06T08:48:08.820Z,9.40
2022-11-06T08:50:38.446Z,9.50
2022-11-06T08:53:07.293Z,9.60
2022-11-06T08:55:37.685Z,10.30
2022-11-06T08:58:08.143Z,10.30
2022-11-06T09:00:36.936Z,10.10
2022-11-06T09:03:06.860Z,9.60
2022-11-06T09:05:35.364Z,9.60
2022-11-06T09:08:03.771Z,9.80
2022-11-06T09:10:31.911Z,9.90
2022-11-06T09:13:00.528Z,10.30
2022-11-06T09:15:30.068Z,10.40
2022-11-06T09:17:58.276Z,10.50
2022-11-06T09:20:27.330Z,11.10
2022-11-06T09:22:55.543Z,11.50
2022-11-06T09:25:23.843Z,11.70
2022-11-06T09:27:58.973Z,12.20
2022-11-06T09:30:30.837Z,12.90
2022-11-06T09:33:00.658Z,13.40
2022-11-06T09:35:30.492Z,13.80
2022-11-06T09:38:03.719Z,14.20
2022-11-06T09:40:35.266Z,14.40
2022-11-06T09:43:58.360Z,14.60
2022-11-06T09:46:23.745Z,15.20
2022-11-06T09:48:59.024Z,15.00
2022-11-06T09:51:37.632Z,15.60
2022-11-06T09:54:14.131Z,16.30
2022-11-06T09:56:44.753Z,17.40
2022-11-06T09:59:17.003Z,18.50
2022-11-06T10:01:49.545Z,19.30
2022-11-06T10:04:28.129Z,20.10
2022-11-06T10:06:56.637Z,20.70
2022-11-06T10:09:24.851Z,21.50
2022-11-06T10:12:03.566Z,20.10
2022-11-06T10:14:52.955Z,18.40
2022-11-06T10:17:34.807Z,19.50
2022-11-06T10:20:12.411Z,19.90
2022-11-06T10:22:42.424Z,20.50
2022-11-06T10:25:22.118Z,20.70
2022-11-06T10:28:02.383Z,18.80
2022-11-06T10:30:38.857Z,18.60
2022-11-06T10:33:25.504Z,19.70
2022-11-06T10:36:00.516Z,19.50
2022-11-06T10:38:31.296Z,19.50
2022-11-06T10:40:59.751Z,19.70
2022-11-06T10:43:32.924Z,18.80
2022-11-06T10:46:10.978Z,17.00
2022-11-06T10:48:45.011Z,16.60
2022-11-06T10:51:32.380Z,16.30
2022-11-06T10:54:15.264Z,15.40
2022-11-06T10:56:55.419Z,14.90
2022-11-06T10:59:23.668Z,14.80
2022-11-06T11:01:52.223Z,14.50
2022-11-06T11:04:21.977Z,14.40
2022-11-06T11:06:50.093Z,14.80
2022-11-06T11:09:29.999Z,14.80
2022-11-06T11:11:58.511Z,14.80
2022-11-06T11:14:28.014Z,14.10
2022-11-06T11:16:56.801Z,14.10
2022-11-06T11:19:34.415Z,13.90
2022-11-06T11:22:04.409Z,13.60
2022-11-06T11:24:33.140Z,13.40
2022-11-06T11:27:03.547Z,13.10
2022-11-06T11:29:33.946Z,13.30
2022-11-06T11:32:05.456Z,13.40
2022-11-06T11:34:37.891Z,12.90
2022-11-06T11:37:08.170Z,12.80
2022-11-06T11:39:39.655Z,12.90
2022-11-06T11:42:18.590Z,12.90
2022-11-06T11:44:46.637Z,12.70
2022-11-06T11:47:25.134Z,13.10
2022-11-06T11:49:54.748Z,13.30
2022-11-06T11:52:24.227Z,13.50
2022-11-06T11:54:55.221Z,13.20
2022-11-06T11:57:26.048Z,12.80
2022-11-06T11:59:57.783Z,13.20
2022-11-06T12:02:30.304Z,13.30
2022-11-06T12:05:02.390Z,13.20
2022-11-06T12:07:32.678Z,12.50
2022-11-06T12:10:02.862Z,13.10
2022-11-06T12:12:33.120Z,13.10
2022-11-06T12:15:19.796Z,13.00
2022-11-06T12:17:53.558Z,12.80
2022-11-06T12:20:40.062Z,12.80
2022-11-06T12:23:14.629Z,13.20
2022-11-06T12:25:45.938Z,13.30
2022-11-06T12:28:18.108Z,13.20
2022-11-06T12:31:01.389Z,12.70
2022-11-06T12:34:04.544Z,12.80
2022-11-06T12:36:22.372Z,12.50
2022-11-06T12:38:56.788Z,12.90
2022-11-06T12:41:30.962Z,12.60
2022-11-06T12:44:00.019Z,12.60
2022-11-06T12:46:45.929Z,12.40
2022-11-06T12:49:36.652Z,12.50
2022-11-06T12:52:22.271Z,12.80
2022-11-06T12:55:12.068Z,12.70
2022-11-06T12:57:49.280Z,13.00
2022-11-06T13:00:20.461Z,13.00
2022-11-06T13:03:18.298Z,13.00
2022-11-06T13:05:54.533Z,12.70
2022-11-06T13:08:35.319Z,12.90
2022-11-06T13:11:13.946Z,12.80
2022-11-06T13:13:53.600Z,12.50
2022-11-06T13:16:31.921Z,12.50
2022-11-06T13:19:06.863Z,12.40
2022-11-06T13:21:56.288Z,12.50
2022-11-06T13:24:31.919Z,12.50
2022-11-06T13:27:04.058Z,12.50
2022-11-06T13:29:32.642Z,12.50
2022-11-06T13:32:05.442Z,12.20
2022-11-06T13:34:36.286Z,12.20
2022-11-06T13:37:08.038Z,12.10
2022-11-06T13:39:41.985Z,12.30
2022-11-06T13:42:20.261Z,12.30
2022-11-06T13:44:49.570Z,12.30
2022-11-06T13:47:22.187Z,12.10
2022-11-06T13:50:01.594Z,12.20
2022-11-06T13:52:35.339Z,12.20
2022-11-06T13:55:14.685Z,12.10
2022-11-06T13:58:13.641Z,12.20
2022-11-06T14:00:52.109Z,12.20
2022-11-06T14:03:38.005Z,12.30
2022-11-06T14:06:07.859Z,12.20
2022-11-06T14:08:43.299Z,12.10
2022-11-06T14:11:16.643Z,12.20
2022-11-06T14:13:59.902Z,12.10
2022-11-06T14:16:31.708Z,12.10
2022-11-06T14:19:04.843Z,11.90
2022-11-06T14:21:52.277Z,12.00
2022-11-06T14:24:32.233Z,12.00
2022-11-06T14:27:03.573Z,12.10
2022-11-06T14:30:03.027Z,12.10
2022-11-06T14:32:41.225Z,12.00
2022-11-06T14:35:52.101Z,12.00
2022-11-06T14:38:44.433Z,11.90
2022-11-06T14:41:49.360Z,11.90
2022-11-06T14:44:36.540Z,11.80
2022-11-06T14:47:09.167Z,11.70
2022-11-06T14:49:42.143Z,11.70
2022-11-06T14:52:13.508Z,11.90
2022-11-06T14:54:50.504Z,11.90
2022-11-06T14:57:34.361Z,12.00
2022-11-06T15:00:04.093Z,11.90
2022-11-06T15:02:34.559Z,11.70
2022-11-06T15:05:06.557Z,11.70
2022-11-06T15:08:08.849Z,11.80
2022-11-06T15:10:53.397Z,11.70
2022-11-06T15:13:30.166Z,11.50
2022-11-06T15:16:12.916Z,11.70
2022-11-06T15:18:45.258Z,11.40
2022-11-06T15:21:23.324Z,11.40
2022-11-06T15:23:59.439Z,11.50
2022-11-06T15:26:31.338Z,11.50
2022-11-06T15:29:13.221Z,11.50
2022-11-06T15:31:47.427Z,11.40
2022-11-06T15:34:21.111Z,11.40
2022-11-06T15:36:56.740Z,11.30
2022-11-06T15:39:40.498Z,11.30
2022-11-06T15:42:10.609Z,11.10
2022-11-06T15:44:42.061Z,11.10
2022-11-06T15:47:21.811Z,11.10
2022-11-06T15:49:49.990Z,11.00
2022-11-06T15:52:19.441Z,10.90
2022-11-06T15:54:49.233Z,10.90
2022-11-06T15:57:20.402Z,10.90
2022-11-06T15:59:49.040Z,10.80
2022-11-06T16:02:21.194Z,10.80
2022-11-06T16:04:50.991Z,10.80
2022-11-06T16:07:20.895Z,10.80
2022-11-06T16:09:50.201Z,10.80
2022-11-06T16:12:19.739Z,11.00
2022-11-06T16:14:47.919Z,10.80
2022-11-06T16:17:24.299Z,10.70
2022-11-06T16:19:55.233Z,10.50
2022-11-06T16:22:30.559Z,10.70
2022-11-06T16:25:01.215Z,10.70
2022-11-06T16:27:33.391Z,10.80
2022-11-06T16:30:03.271Z,10.60
2022-11-06T16:32:39.275Z,10.60
2022-11-06T16:35:31.484Z,10.70
2022-11-06T16:38:42.389Z,10.70
2022-11-06T16:41:13.235Z,10.60
2022-11-06T16:43:41.673Z,10.60
2022-11-06T16:46:09.872Z,10.70
2022-11-06T16:48:40.866Z,10.70
2022-11-06T16:51:11.941Z,10.70
2022-11-06T16:53:54.461Z,10.70
2022-11-06T16:56:28.751Z,10.80
2022-11-06T16:59:02.229Z,10.80
2022-11-06T17:01:40.917Z,10.90
2022-11-06T17:04:20.948Z,10.70
2022-11-06T17:06:49.839Z,10.60
2022-11-06T17:09:31.864Z,10.70
2022-11-06T17:12:02.132Z,10.80
2022-11-06T17:14:32.641Z,10.80
2022-11-06T17:17:03.834Z,10.80
2022-11-06T17:19:33.590Z,10.80
2022-11-06T17:22:02.621Z,10.80
2022-11-06T17:24:36.353Z,10.70
2022-11-06T17:27:05.717Z,10.60
2022-11-06T17:29:36.513Z,10.50
2022-11-06T17:32:06.281Z,10.50
2022-11-06T17:34:35.837Z,10.60
2022-11-06T17:37:04.033Z,10.70
2022-11-06T17:39:33.848Z,10.40
2022-11-06T17:42:01.919Z,10.70
2022-11-06T17:44:30.012Z,10.50
2022-11-06T17:46:58.261Z,10.60
2022-11-06T17:49:26.466Z,10.70
2022-11-06T17:52:00.399Z,10.70
2022-11-06T17:54:32.183Z,10.60
2022-11-06T17:57:02.627Z,10.70
2022-11-06T17:59:31.231Z,10.60
2022-11-06T18:02:00.169Z,10.80
2022-11-06T18:04:31.450Z,10.80
2022-11-06T18:07:01.050Z,10.90
2022-11-06T18:09:29.489Z,10.80
2022-11-06T18:11:59.996Z,10.80
2022-11-06T18:14:30.003Z,10.80
2022-11-06T18:16:58.948Z,10.90
2022-11-06T18:19:27.821Z,10.80
2022-11-06T18:21:59.908Z,10.80
2022-11-06T18:24:33.646Z,10.80
2022-11-06T18:27:03.137Z,10.80
2022-11-06T18:29:32.339Z,10.80
2022-11-06T18:32:03.293Z,10.80
2022-11-06T18:34:32.913Z,10.70
2022-11-06T18:37:02.483Z,10.70
2022-11-06T18:39:33.413Z,10.70
2022-11-06T18:42:03.313Z,10.70
2022-11-06T18:44:35.599Z,10.70
2022-11-06T18:47:04.645Z,10.50
2022-11-06T18:49:34.847Z,10.50
2022-11-06T18:52:05.597Z,10.50
2022-11-06T18:54:35.326Z,10.60
2022-11-06T18:57:04.103Z,10.60
2022-11-06T18:59:32.501Z,10.40
2022-11-06T19:02:00.773Z,10.60
2022-11-06T19:04:29.359Z,10.50
2022-11-06T19:06:58.064Z,10.50
2022-11-06T19:09:26.625Z,10.40
2022-11-06T19:11:56.281Z,10.40
2022-11-06T19:14:24.583Z,10.50
2022-11-06T19:16:53.727Z,10.60
2022-11-06T19:19:25.484Z,10.50
2022-11-06T19:21:54.723Z,10.60
2022-11-06T19:24:23.601Z,10.60
2022-11-06T19:26:51.860Z,10.50
2022-11-06T19:29:22.572Z,10.50
2022-11-06T19:31:52.859Z,10.50
2022-11-06T19:34:25.523Z,10.50
2022-11-06T19:36:54.247Z,10.50
2022-11-06T19:39:23.016Z,10.50
2022-11-06T19:41:51.732Z,10.50
2022-11-06T19:44:22.199Z,10.60
2022-11-06T19:46:50.735Z,10.60
2022-11-06T19:49:20.410Z,10.60
2022-11-06T19:51:48.836Z,10.60
2022-11-06T19:54:17.860Z,10.60
2022-11-06T19:57:28.677Z,10.60
2022-11-06T19:59:38.419Z,10.60
2022-11-06T20:02:07.824Z,10.70
2022-11-06T20:04:37.597Z,10.60
2022-11-06T20:07:06.289Z,10.60
2022-11-06T20:09:35.125Z,10.60
2022-11-06T20:12:04.621Z,10.60
2022-11-06T20:14:33.402Z,10.60
2022-11-06T20:17:03.347Z,10.50
2022-11-06T20:19:31.605Z,10.50
2022-11-06T20:22:00.010Z,10.50
2022-11-06T20:24:28.327Z,10.60
2022-11-06T20:26:56.561Z,10.70
2022-11-06T20:29:24.786Z,10.70
2022-11-06T20:31:53.005Z,10.70
2022-11-06T20:34:22.773Z,10.70
2022-11-06T20:36:50.971Z,10.80
2022-11-06T20:39:19.257Z,10.80
2022-11-06T20:41:47.624Z,10.70
2022-11-06T20:44:15.913Z,10.80
2022-11-06T20:46:47.539Z,10.90
2022-11-06T20:49:16.027Z,10.90
2022-11-06T20:52:12.015Z,10.80
2022-11-06T20:54:34.383Z,10.80
2022-11-06T20:57:02.743Z,10.80
2022-11-06T20:59:31.095Z,10.90
2022-11-06T21:01:59.569Z,10.90
2022-11-06T21:04:27.983Z,10.90
2022-11-06T21:06:58.333Z,10.90
2022-11-06T21:09:26.679Z,10.90
2022-11-06T21:11:55.000Z,10.80
2022-11-06T21:14:23.492Z,10.90
2022-11-06T21:16:52.665Z,10.80
2022-11-06T21:19:20.809Z,10.90
2022-11-06T21:21:49.190Z,10.90
2022-11-06T21:24:18.710Z,10.90
2022-11-06T21:26:47.206Z,10.90
2022-11-06T21:29:15.477Z,10.90
2022-11-06T21:31:49.220Z,11.00
2022-11-06T21:34:18.701Z,11.00
2022-11-06T21:36:47.742Z,11.00
2022-11-06T21:39:19.310Z,11.00
2022-11-06T21:41:47.933Z,10.90
2022-11-06T21:44:18.796Z,10.90
2022-11-06T21:46:47.201Z,10.90
2022-11-06T21:49:15.388Z,11.00
2022-11-06T21:51:43.785Z,11.00
2022-11-06T21:54:29.794Z,11.00
2022-11-06T21:56:59.492Z,11.00
2022-11-06T21:59:29.590Z,11.10
2022-11-06T22:01:58.314Z,11.00
2022-11-06T22:04:26.726Z,11.00
2022-11-06T22:06:54.924Z,11.00
2022-11-06T22:09:25.602Z,11.10
2022-11-06T22:11:54.377Z,11.10
2022-11-06T22:14:23.939Z,11.10
2022-11-06T22:16:53.358Z,11.10
2022-11-06T22:19:21.537Z,11.10
2022-11-06T22:21:49.661Z,11.10
2022-11-06T22:24:17.826Z,11.00
2022-11-06T22:26:45.939Z,11.00
2022-11-06T22:29:15.497Z,11.10
2022-11-06T22:31:45.370Z,11.00
2022-11-06T22:34:14.213Z,11.10
2022-11-06T22:36:42.727Z,11.10
2022-11-06T22:39:12.636Z,11.10
2022-11-06T22:41:41.199Z,11.10
2022-11-06T22:44:09.754Z,11.20
2022-11-06T22:46:37.944Z,11.10
2022-11-06T22:49:07.865Z,11.20
2022-11-06T22:51:36.621Z,11.10
2022-11-06T22:54:05.750Z,11.10
2022-11-06T22:56:34.086Z,11.10
2022-11-06T22:59:03.717Z,11.10
2022-11-06T23:01:41.236Z,11.00
2022-11-06T23:04:15.792Z,11.10
2022-11-06T23:06:44.814Z,11.10
2022-11-06T23:09:13.013Z,11.00
2022-11-06T23:11:41.283Z,11.10
2022-11-06T23:14:09.698Z,11.10
2022-11-06T23:16:55.642Z,11.10
2022-11-06T23:19:25.511Z,11.20
2022-11-06T23:22:13.667Z,11.10
2022-11-06T23:24:41.721Z,11.10
2022-11-06T23:27:10.496Z,11.20
2022-11-06T23:29:38.906Z,11.20
2022-11-06T23:32:07.431Z,11.10
2022-11-06T23:34:36.929Z,11.00
2022-11-06T23:37:05.119Z,11.00
2022-11-06T23:39:33.148Z,11.10
2022-11-06T23:42:01.229Z,11.10
2022-11-06T23:44:47.149Z,11.00
2022-11-06T23:47:15.457Z,11.00
2022-11-06T23:49:44.919Z,11.00
2022-11-06T23:52:13.014Z,11.00
2022-11-06T23:54:41.139Z,11.00
2022-11-06T23:57:09.810Z,11.00
2022-11-06T23:59:38.424Z,10.90
